createdAt,value
2023-05-22T00:00:52.828Z,18.59
2023-05-22T00:05:58.911Z,18.56
2023-05-22T00:11:00.563Z,18.50
2023-05-22T00:16:02.494Z,18.50
2023-05-22T00:21:04.495Z,18.37
2023-05-22T00:26:06.104Z,18.29
2023-05-22T00:31:07.802Z,18.23
2023-05-22T00:36:09.590Z,18.15
2023-05-22T00:41:11.222Z,18.12
2023-05-22T00:46:12.962Z,18.01
2023-05-22T00:51:14.963Z,17.94
2023-05-22T00:56:17.257Z,17.98
2023-05-22T01:01:19.016Z,17.90
2023-05-22T01:06:21.517Z,17.87
2023-05-22T01:11:28.911Z,17.83
2023-05-22T01:16:54.764Z,17.77
2023-05-22T01:21:59.204Z,17.68
2023-05-22T01:27:20.084Z,17.64
2023-05-22T01:32:23.561Z,17.55
2023-05-22T01:37:27.658Z,17.58
2023-05-22T01:42:29.753Z,17.52
2023-05-22T01:47:33.803Z,17.45
2023-05-22T01:53:08.647Z,17.43
2023-05-22T01:58:32.617Z,17.31
2023-05-22T02:03:35.811Z,17.27
2023-05-22T02:08:39.030Z,17.19
2023-05-22T02:13:40.667Z,17.19
2023-05-22T02:18:42.970Z,17.17
2023-05-22T02:23:44.749Z,17.07
2023-05-22T02:28:46.337Z,17.02
2023-05-22T02:33:48.407Z,17.04
2023-05-22T02:38:50.075Z,17.00
2023-05-22T02:43:51.917Z,16.94
2023-05-22T02:48:53.599Z,16.85
2023-05-22T02:53:55.240Z,16.87
2023-05-22T02:58:59.598Z,16.79
2023-05-22T03:04:01.455Z,16.76
2023-05-22T03:09:04.322Z,16.75
2023-05-22T03:14:05.972Z,16.71
2023-05-22T03:19:12.246Z,16.63
2023-05-22T03:24:14.227Z,16.67
2023-05-22T03:29:16.017Z,16.62
2023-05-22T03:34:18.827Z,16.64
2023-05-22T03:39:22.824Z,16.72
2023-05-22T03:44:31.385Z,16.72
2023-05-22T03:49:33.180Z,16.63
2023-05-22T03:54:34.836Z,16.74
2023-05-22T03:59:38.071Z,16.79
2023-05-22T04:04:39.849Z,16.86
2023-05-22T04:09:41.660Z,17.06
2023-05-22T04:14:43.294Z,17.21
2023-05-22T04:19:44.944Z,17.20
2023-05-22T04:24:49.062Z,17.44
2023-05-22T04:29:51.139Z,17.44
2023-05-22T04:34:53.012Z,17.37
2023-05-22T04:39:58.127Z,17.71
2023-05-22T04:44:59.980Z,17.59
2023-05-22T04:50:02.494Z,17.76
2023-05-22T04:55:05.968Z,18.05
2023-05-22T05:00:09.011Z,18.19
2023-05-22T05:05:12.428Z,18.12
2023-05-22T05:10:14.536Z,18.34
2023-05-22T05:15:16.937Z,18.27
2023-05-22T05:20:18.950Z,18.40
2023-05-22T05:25:20.631Z,18.73
2023-05-22T05:30:22.315Z,18.65
2023-05-22T05:35:52.850Z,18.83
2023-05-22T05:40:58.385Z,19.00
2023-05-22T05:46:00.743Z,18.93
2023-05-22T05:51:03.693Z,19.05
2023-05-22T05:56:09.941Z,19.19
2023-05-22T06:01:13.294Z,19.27
2023-05-22T06:06:15.373Z,19.34
2023-05-22T06:11:45.982Z,19.52
2023-05-22T06:16:48.247Z,19.60
2023-05-22T06:21:52.019Z,19.68
2023-05-22T06:26:55.726Z,19.54
2023-05-22T06:31:57.529Z,19.89
2023-05-22T06:36:59.619Z,20.09
2023-05-22T06:42:06.614Z,20.28
2023-05-22T06:47:28.225Z,20.43
2023-05-22T06:52:30.171Z,20.66
2023-05-22T06:57:34.683Z,20.70
2023-05-22T07:02:39.892Z,20.99
2023-05-22T07:07:58.538Z,21.18
2023-05-22T07:13:00.895Z,21.63
2023-05-22T07:18:03.902Z,21.68
2023-05-22T07:23:05.888Z,21.94
2023-05-22T07:28:10.753Z,22.25
2023-05-22T07:33:24.120Z,22.46
2023-05-22T07:38:26.596Z,22.42
2023-05-22T07:43:34.990Z,22.54
2023-05-22T07:48:36.955Z,22.59
2023-05-22T07:53:38.639Z,22.80
2023-05-22T07:58:41.484Z,22.80
2023-05-22T08:03:43.521Z,22.97
2023-05-22T08:08:45.508Z,22.75
2023-05-22T08:13:47.841Z,23.10
2023-05-22T08:18:50.072Z,23.41
2023-05-22T08:23:51.726Z,23.39
2023-05-22T08:28:54.141Z,23.26
2023-05-22T08:34:02.237Z,23.15
2023-05-22T08:39:04.246Z,23.42
2023-05-22T08:44:05.984Z,23.58
2023-05-22T08:49:09.289Z,23.54
2023-05-22T08:54:11.027Z,23.70
2023-05-22T08:59:12.881Z,23.63
2023-05-22T09:04:14.561Z,23.85
2023-05-22T09:09:16.247Z,24.02
2023-05-22T09:14:18.711Z,24.19
2023-05-22T09:19:20.662Z,24.47
2023-05-22T09:24:22.465Z,24.35
2023-05-22T09:29:24.092Z,24.51
2023-05-22T09:34:32.883Z,24.48
2023-05-22T09:39:46.887Z,24.42
2023-05-22T09:44:49.386Z,24.45
2023-05-22T09:49:51.102Z,24.57
2023-05-22T09:54:56.749Z,24.48
2023-05-22T09:59:59.495Z,24.59
2023-05-22T10:05:06.758Z,24.32
2023-05-22T10:10:09.658Z,24.29
2023-05-22T10:15:11.757Z,24.26
2023-05-22T10:20:14.944Z,24.19
2023-05-22T10:25:18.405Z,24.26
2023-05-22T10:30:36.905Z,24.13
2023-05-22T10:36:08.542Z,24.19
2023-05-22T10:41:11.482Z,24.27
2023-05-22T10:46:13.306Z,24.51
2023-05-22T10:51:21.083Z,24.49
2023-05-22T10:56:25.354Z,24.46
2023-05-22T11:01:27.616Z,24.32
2023-05-22T11:06:43.480Z,24.34
2023-05-22T11:11:46.299Z,24.32
2023-05-22T11:16:48.082Z,24.32
2023-05-22T11:21:49.752Z,24.35
2023-05-22T11:27:07.809Z,24.45
2023-05-22T11:32:09.808Z,24.41
2023-05-22T11:37:11.639Z,24.36
2023-05-22T11:42:13.339Z,24.26
2023-05-22T11:47:15.078Z,24.36
2023-05-22T11:52:17.331Z,24.50
2023-05-22T11:57:19.834Z,24.41
2023-05-22T12:02:21.538Z,24.52
2023-05-22T12:07:24.209Z,24.41
2023-05-22T12:12:26.177Z,24.45
2023-05-22T12:17:28.615Z,24.50
2023-05-22T12:22:30.297Z,24.51
2023-05-22T12:27:33.547Z,24.48
2023-05-22T12:32:35.906Z,24.56
2023-05-22T12:37:37.580Z,24.61
2023-05-22T12:42:39.226Z,24.70
2023-05-22T12:47:40.941Z,24.75
2023-05-22T12:52:42.612Z,24.97
2023-05-22T12:57:44.361Z,24.91
2023-05-22T13:02:46.062Z,24.90
2023-05-22T13:07:47.776Z,25.16
2023-05-22T13:12:51.325Z,25.08
2023-05-22T13:17:53.061Z,25.16
2023-05-22T13:22:54.948Z,25.08
2023-05-22T13:27:57.442Z,25.08
2023-05-22T13:32:59.137Z,25.13
2023-05-22T13:38:00.816Z,25.22
2023-05-22T13:43:03.051Z,25.13
2023-05-22T13:48:04.698Z,25.30
2023-05-22T13:53:06.346Z,25.34
2023-05-22T13:58:08.063Z,25.32
2023-05-22T14:03:11.514Z,25.34
2023-05-22T14:08:13.787Z,25.38
2023-05-22T14:13:15.730Z,25.36
2023-05-22T14:18:17.469Z,25.56
2023-05-22T14:23:19.437Z,25.43
2023-05-22T14:28:21.056Z,25.55
2023-05-22T14:33:22.735Z,25.45
2023-05-22T14:38:24.395Z,25.43
2023-05-22T14:43:25.992Z,25.53
2023-05-22T14:48:29.334Z,25.42
2023-05-22T14:53:31.039Z,25.40
2023-05-22T14:58:32.969Z,25.38
2023-05-22T15:03:34.652Z,25.41
2023-05-22T15:08:36.691Z,25.29
2023-05-22T15:13:38.307Z,25.20
2023-05-22T15:18:39.958Z,25.35
2023-05-22T15:23:41.766Z,25.21
2023-05-22T15:28:43.620Z,25.17
2023-05-22T15:33:46.481Z,25.10
2023-05-22T15:38:48.106Z,25.04
2023-05-22T15:43:52.581Z,25.05
2023-05-22T15:48:54.309Z,24.89
2023-05-22T15:53:57.254Z,24.79
2023-05-22T15:58:58.948Z,24.67
2023-05-22T16:04:01.353Z,24.66
2023-05-22T16:09:03.310Z,24.41
2023-05-22T16:14:05.034Z,24.45
2023-05-22T16:19:06.755Z,24.38
2023-05-22T16:24:09.839Z,24.32
2023-05-22T16:29:11.515Z,24.19
2023-05-22T16:34:13.173Z,24.13
2023-05-22T16:39:15.662Z,24.10
2023-05-22T16:44:17.439Z,24.07
2023-05-22T16:49:19.228Z,23.99
2023-05-22T16:54:21.499Z,23.94
2023-05-22T16:59:23.248Z,23.84
2023-05-22T17:04:24.946Z,23.78
2023-05-22T17:09:27.638Z,23.74
2023-05-22T17:14:29.418Z,23.66
2023-05-22T17:19:32.224Z,23.56
2023-05-22T17:24:34.374Z,23.48
2023-05-22T17:29:36.104Z,23.42
2023-05-22T17:34:37.729Z,23.33
2023-05-22T17:39:39.452Z,23.28
2023-05-22T17:44:41.136Z,23.22
2023-05-22T17:49:42.739Z,23.20
2023-05-22T17:54:44.399Z,23.13
2023-05-22T17:59:46.066Z,23.10
2023-05-22T18:04:48.502Z,23.05
2023-05-22T18:09:50.183Z,22.97
2023-05-22T18:14:51.997Z,22.90
2023-05-22T18:19:53.637Z,22.83
2023-05-22T18:24:55.281Z,22.76
2023-05-22T18:29:57.565Z,22.66
2023-05-22T18:34:59.981Z,22.59
2023-05-22T18:40:01.745Z,22.55
2023-05-22T18:45:03.877Z,22.40
2023-05-22T18:50:06.200Z,22.35
2023-05-22T18:55:08.407Z,22.30
2023-05-22T19:00:10.645Z,22.20
2023-05-22T19:05:12.381Z,22.11
2023-05-22T19:10:14.171Z,22.04
2023-05-22T19:15:15.877Z,21.98
2023-05-22T19:20:17.566Z,21.91
2023-05-22T19:25:19.396Z,21.84
2023-05-22T19:30:22.294Z,21.79
2023-05-22T19:35:23.959Z,21.74
2023-05-22T19:40:25.763Z,21.70
2023-05-22T19:45:27.767Z,21.65
2023-05-22T19:50:29.399Z,21.61
2023-05-22T19:55:31.834Z,21.45
2023-05-22T20:00:35.151Z,21.48
2023-05-22T20:05:36.797Z,21.43
2023-05-22T20:10:38.567Z,21.37
2023-05-22T20:15:41.177Z,21.30
2023-05-22T20:20:43.018Z,21.24
2023-05-22T20:25:44.722Z,21.13
2023-05-22T20:30:46.358Z,21.09
2023-05-22T20:35:49.264Z,21.04
2023-05-22T20:40:52.160Z,21.02
2023-05-22T20:45:54.177Z,20.94
2023-05-22T20:50:55.964Z,20.86
2023-05-22T20:55:57.769Z,20.81
2023-05-22T21:00:59.458Z,20.71
2023-05-22T21:06:01.165Z,20.69
2023-05-22T21:11:02.884Z,20.64
2023-05-22T21:16:04.700Z,20.57
2023-05-22T21:21:06.389Z,20.49
2023-05-22T21:26:08.060Z,20.43
2023-05-22T21:31:09.918Z,20.40
2023-05-22T21:36:11.546Z,20.35
2023-05-22T21:41:15.779Z,20.31
2023-05-22T21:46:17.425Z,20.24
2023-05-22T21:51:19.503Z,20.18
2023-05-22T21:56:21.261Z,20.15
2023-05-22T22:01:23.360Z,20.08
2023-05-22T22:06:25.017Z,20.10
2023-05-22T22:11:26.662Z,20.13
2023-05-22T22:16:28.551Z,20.03
2023-05-22T22:21:30.310Z,19.90
2023-05-22T22:26:32.285Z,20.08
2023-05-22T22:31:34.142Z,20.10
2023-05-22T22:36:35.815Z,20.07
2023-05-22T22:41:37.422Z,20.11
2023-05-22T22:46:39.108Z,20.11
2023-05-22T22:51:40.709Z,20.05
2023-05-22T22:56:42.309Z,20.04
2023-05-22T23:01:44.023Z,19.98
2023-05-22T23:06:46.156Z,19.85
2023-05-22T23:11:47.804Z,19.93
2023-05-22T23:16:49.428Z,19.83
2023-05-22T23:21:51.905Z,19.80
2023-05-22T23:26:53.575Z,19.54
2023-05-22T23:31:55.468Z,19.53
2023-05-22T23:36:57.277Z,19.66
2023-05-22T23:42:02.011Z,19.69
2023-05-22T23:47:04.189Z,19.68
2023-05-22T23:52:06.684Z,19.79
2023-05-22T23:57:08.263Z,19.78
